createdAt,value
2023-05-05T00:00:28.760Z,5.87
2023-05-05T00:02:57.086Z,6.18
2023-05-05T00:05:26.692Z,6.37
2023-05-05T00:07:54.836Z,5.97
2023-05-05T00:10:22.906Z,5.90
2023-05-05T00:12:50.881Z,5.75
2023-05-05T00:15:19.970Z,5.57
2023-05-05T00:17:48.118Z,5.35
2023-05-05T00:20:16.300Z,5.62
2023-05-05T00:22:44.321Z,6.00
2023-05-05T00:25:12.379Z,5.47
2023-05-05T00:27:41.068Z,5.72
2023-05-05T00:30:09.460Z,5.60
2023-05-05T00:32:37.899Z,5.20
2023-05-05T00:35:06.232Z,5.30
2023-05-05T00:37:34.246Z,4.85
2023-05-05T00:40:02.244Z,5.30
2023-05-05T00:42:41.226Z,5.28
2023-05-05T00:45:10.091Z,5.35
2023-05-05T00:47:38.233Z,5.05
2023-05-05T00:50:09.423Z,4.55
2023-05-05T00:52:38.370Z,5.18
2023-05-05T00:55:06.980Z,5.18
2023-05-05T00:57:35.162Z,4.97
2023-05-05T01:00:03.821Z,5.35
2023-05-05T01:02:32.750Z,4.90
2023-05-05T01:05:01.567Z,4.80
2023-05-05T01:07:47.167Z,5.32
2023-05-05T01:10:32.490Z,4.90
2023-05-05T01:13:12.308Z,5.80
2023-05-05T01:16:05.887Z,5.40
2023-05-05T01:18:56.949Z,4.95
2023-05-05T01:21:32.689Z,5.40
2023-05-05T01:24:27.752Z,5.25
2023-05-05T01:27:17.559Z,5.40
2023-05-05T01:30:22.849Z,5.00
2023-05-05T01:32:58.214Z,4.78
2023-05-05T01:35:31.170Z,5.57
2023-05-05T01:38:05.755Z,5.03
2023-05-05T01:40:35.316Z,5.25
2023-05-05T01:43:03.254Z,5.45
2023-05-05T01:45:33.067Z,5.20
2023-05-05T01:48:01.068Z,5.28
2023-05-05T01:50:29.550Z,5.00
2023-05-05T01:52:57.761Z,5.53
2023-05-05T01:55:28.990Z,5.50
2023-05-05T01:57:57.042Z,5.22
2023-05-05T02:00:26.563Z,4.93
2023-05-05T02:02:54.951Z,5.85
2023-05-05T02:05:24.198Z,5.35
2023-05-05T02:07:52.334Z,5.62
2023-05-05T02:10:20.389Z,5.20
2023-05-05T02:12:48.306Z,5.65
2023-05-05T02:15:16.348Z,5.45
2023-05-05T02:17:44.672Z,5.80
2023-05-05T02:20:14.094Z,5.82
2023-05-05T02:22:42.226Z,5.85
2023-05-05T02:25:10.761Z,5.45
2023-05-05T02:27:39.167Z,6.00
2023-05-05T02:30:09.955Z,5.43
2023-05-05T02:32:52.140Z,5.80
2023-05-05T02:35:22.755Z,5.80
2023-05-05T02:38:01.378Z,5.53
2023-05-05T02:40:31.012Z,5.68
2023-05-05T02:43:00.241Z,5.12
2023-05-05T02:45:28.333Z,5.90
2023-05-05T02:47:56.353Z,5.97
2023-05-05T02:50:24.368Z,5.47
2023-05-05T02:52:52.332Z,5.43
2023-05-05T02:55:20.303Z,5.32
2023-05-05T02:57:57.573Z,5.70
2023-05-05T03:00:28.548Z,5.37
2023-05-05T03:03:19.265Z,5.95
2023-05-05T03:06:12.611Z,6.12
2023-05-05T03:09:00.281Z,5.90
2023-05-05T03:11:52.328Z,6.05
2023-05-05T03:14:22.335Z,5.60
2023-05-05T03:16:50.740Z,5.55
2023-05-05T03:19:20.033Z,5.73
2023-05-05T03:21:48.062Z,5.50
2023-05-05T03:24:17.159Z,5.68
2023-05-05T03:26:45.718Z,6.45
2023-05-05T03:29:14.504Z,7.00
2023-05-05T03:31:42.789Z,6.28
2023-05-05T03:34:10.875Z,6.85
2023-05-05T03:36:39.298Z,6.43
2023-05-05T03:39:07.334Z,6.45
2023-05-05T03:41:35.411Z,6.70
2023-05-05T03:44:03.381Z,6.75
2023-05-05T03:46:31.276Z,7.10
2023-05-05T03:48:59.340Z,6.30
2023-05-05T03:51:27.366Z,6.60
2023-05-05T03:53:55.304Z,6.80
2023-05-05T03:56:23.414Z,6.78
2023-05-05T03:58:51.356Z,7.05
2023-05-05T04:01:19.349Z,7.12
2023-05-05T04:03:47.529Z,6.95
2023-05-05T04:06:15.559Z,6.82
2023-05-05T04:08:43.599Z,6.60
2023-05-05T04:11:12.003Z,6.80
2023-05-05T04:13:39.984Z,6.45
2023-05-05T04:16:08.206Z,7.00
2023-05-05T04:18:36.272Z,7.05
2023-05-05T04:21:04.596Z,6.37
2023-05-05T04:23:32.685Z,6.15
2023-05-05T04:26:00.676Z,6.25
2023-05-05T04:28:28.742Z,6.65
2023-05-05T04:30:56.901Z,6.57
2023-05-05T04:33:25.037Z,6.43
2023-05-05T04:35:53.039Z,6.68
2023-05-05T04:38:22.404Z,6.45
2023-05-05T04:40:50.475Z,6.93
2023-05-05T04:43:18.447Z,6.37
2023-05-05T04:45:55.923Z,6.72
2023-05-05T04:48:24.020Z,5.93
2023-05-05T04:50:52.699Z,6.57
2023-05-05T04:53:20.740Z,6.25
2023-05-05T04:55:48.754Z,7.10
2023-05-05T04:58:16.857Z,7.10
2023-05-05T05:00:44.924Z,6.57
2023-05-05T05:03:13.493Z,6.60
2023-05-05T05:05:41.544Z,6.82
2023-05-05T05:08:09.586Z,7.47
2023-05-05T05:10:37.807Z,6.78
2023-05-05T05:13:05.866Z,7.28
2023-05-05T05:15:33.857Z,6.97
2023-05-05T05:18:01.885Z,6.57
2023-05-05T05:20:31.667Z,7.65
2023-05-05T05:22:59.817Z,6.95
2023-05-05T05:25:27.865Z,6.35
2023-05-05T05:30:30.313Z,7.28
2023-05-05T05:32:58.267Z,6.90
2023-05-05T05:35:26.335Z,7.55
2023-05-05T05:37:54.354Z,7.47
2023-05-05T05:40:22.451Z,7.35
2023-05-05T05:42:50.929Z,6.97
2023-05-05T05:45:19.109Z,7.03
2023-05-05T05:47:47.305Z,6.95
2023-05-05T05:50:15.340Z,6.90
2023-05-05T05:52:43.356Z,6.50
2023-05-05T05:55:11.438Z,7.03
2023-05-05T05:57:39.410Z,7.03
2023-05-05T06:00:08.113Z,6.72
2023-05-05T06:02:36.444Z,7.22
2023-05-05T06:05:04.568Z,6.75
2023-05-05T06:07:32.499Z,8.13
2023-05-05T06:10:10.889Z,7.57
2023-05-05T06:12:46.965Z,6.90
2023-05-05T06:15:14.918Z,7.47
2023-05-05T06:17:42.875Z,7.25
2023-05-05T06:20:11.515Z,7.57
2023-05-05T06:22:39.505Z,7.18
2023-05-05T06:25:08.032Z,7.55
2023-05-05T06:27:36.216Z,7.43
2023-05-05T06:30:04.164Z,7.78
2023-05-05T06:32:32.206Z,7.03
2023-05-05T06:35:00.369Z,7.45
2023-05-05T06:37:28.357Z,7.45
2023-05-05T06:39:56.411Z,4.12
2023-05-05T06:42:24.453Z,6.55
2023-05-05T06:44:52.506Z,5.30
2023-05-05T06:47:20.459Z,5.93
2023-05-05T06:49:48.522Z,6.57
2023-05-05T06:52:16.528Z,6.05
2023-05-05T06:54:45.108Z,6.32
2023-05-05T06:57:13.176Z,6.78
2023-05-05T06:59:41.119Z,7.85
2023-05-05T07:02:09.117Z,7.40
2023-05-05T07:04:37.911Z,7.25
2023-05-05T07:07:06.026Z,7.60
2023-05-05T07:09:34.036Z,6.90
2023-05-05T07:12:02.062Z,7.85
2023-05-05T07:14:30.093Z,7.45
2023-05-05T07:16:58.328Z,7.55
2023-05-05T07:19:26.494Z,13.00
2023-05-05T07:21:54.489Z,9.88
2023-05-05T07:24:22.474Z,7.95
2023-05-05T07:26:50.388Z,7.12
2023-05-05T07:29:18.335Z,7.40
2023-05-05T07:31:46.275Z,7.68
2023-05-05T07:34:14.371Z,7.72
2023-05-05T07:36:42.367Z,7.65
2023-05-05T07:39:10.411Z,7.20
2023-05-05T07:41:38.396Z,8.25
2023-05-05T07:44:06.498Z,7.72
2023-05-05T07:46:34.523Z,8.18
2023-05-05T07:49:02.625Z,8.68
2023-05-05T07:51:32.021Z,7.80
2023-05-05T07:54:01.282Z,8.27
2023-05-05T07:56:29.315Z,8.02
2023-05-05T07:58:57.313Z,8.25
2023-05-05T08:01:25.364Z,7.53
2023-05-05T08:03:53.469Z,7.85
2023-05-05T08:06:26.204Z,8.45
2023-05-05T08:08:54.737Z,7.25
2023-05-05T08:11:23.483Z,7.37
2023-05-05T08:13:51.570Z,7.22
2023-05-05T08:16:19.697Z,6.15
2023-05-05T08:18:47.995Z,7.15
2023-05-05T08:21:16.183Z,7.82
2023-05-05T08:23:44.409Z,7.45
2023-05-05T08:26:12.481Z,7.50
2023-05-05T08:28:40.588Z,7.07
2023-05-05T08:31:09.166Z,7.78
2023-05-05T08:33:37.203Z,8.32
2023-05-05T08:36:05.366Z,7.53
2023-05-05T08:38:33.586Z,8.00
2023-05-05T08:41:01.636Z,7.35
2023-05-05T08:43:29.707Z,7.30
2023-05-05T08:45:58.134Z,7.75
2023-05-05T08:48:26.146Z,6.82
2023-05-05T08:50:59.517Z,6.87
2023-05-05T08:53:41.370Z,6.87
2023-05-05T08:56:09.442Z,6.75
2023-05-05T08:58:38.291Z,6.85
2023-05-05T09:01:08.262Z,6.80
2023-05-05T09:03:37.048Z,7.00
2023-05-05T09:06:05.506Z,6.28
2023-05-05T09:08:33.584Z,7.68
2023-05-05T09:11:02.164Z,7.85
2023-05-05T09:13:31.238Z,7.93
2023-05-05T09:16:02.069Z,8.85
2023-05-05T09:18:30.275Z,7.28
2023-05-05T09:20:59.479Z,6.45
2023-05-05T09:23:27.576Z,6.15
2023-05-05T09:26:12.111Z,5.90
2023-05-05T09:28:40.147Z,5.47
2023-05-05T09:31:15.441Z,5.37
2023-05-05T09:33:43.499Z,4.18
2023-05-05T09:36:12.957Z,4.37
2023-05-05T09:38:40.955Z,4.50
2023-05-05T09:41:08.855Z,4.50
2023-05-05T09:43:53.036Z,4.00
2023-05-05T09:46:21.082Z,3.78
2023-05-05T09:48:49.318Z,4.00
2023-05-05T09:51:17.497Z,3.60
2023-05-05T09:53:45.520Z,3.58
2023-05-05T09:56:13.529Z,4.12
2023-05-05T09:58:41.761Z,3.90
2023-05-05T10:01:22.754Z,3.40
2023-05-05T10:03:53.981Z,3.17
2023-05-05T10:06:23.364Z,3.10
2023-05-05T10:09:02.611Z,3.25
2023-05-05T10:11:30.697Z,3.08
2023-05-05T10:13:58.711Z,3.17
2023-05-05T10:16:27.528Z,2.67
2023-05-05T10:18:57.081Z,2.00
2023-05-05T10:21:26.604Z,2.90
2023-05-05T10:23:59.675Z,3.00
2023-05-05T10:26:28.057Z,3.03
2023-05-05T10:28:59.014Z,3.15
2023-05-05T10:31:31.413Z,3.33
2023-05-05T10:34:05.114Z,3.00
2023-05-05T10:36:33.285Z,3.05
2023-05-05T10:39:01.597Z,2.75
2023-05-05T10:41:29.684Z,2.95
2023-05-05T10:44:03.678Z,3.05
2023-05-05T10:46:32.585Z,2.67
2023-05-05T10:49:13.461Z,2.65
2023-05-05T10:51:41.715Z,3.40
2023-05-05T10:54:22.382Z,2.90
2023-05-05T10:56:50.341Z,2.97
2023-05-05T10:59:41.607Z,2.28
2023-05-05T11:02:26.383Z,2.20
2023-05-05T11:05:18.962Z,2.53
2023-05-05T11:07:47.738Z,2.42
2023-05-05T11:10:16.452Z,2.12
2023-05-05T11:12:53.418Z,2.20
2023-05-05T11:15:30.668Z,2.20
2023-05-05T11:17:59.521Z,2.05
2023-05-05T11:20:36.727Z,1.90
2023-05-05T11:23:05.301Z,1.85
2023-05-05T11:25:36.765Z,2.22
2023-05-05T11:28:15.923Z,1.90
2023-05-05T11:30:56.381Z,1.95
2023-05-05T11:33:37.338Z,1.80
2023-05-05T11:36:12.969Z,2.05
2023-05-05T11:38:40.777Z,1.80
2023-05-05T11:41:11.392Z,2.25
2023-05-05T11:43:39.706Z,2.20
2023-05-05T11:46:14.602Z,2.40
2023-05-05T11:48:49.238Z,1.90
2023-05-05T11:51:17.840Z,2.05
2023-05-05T11:53:49.279Z,1.95
2023-05-05T11:56:23.121Z,1.80
2023-05-05T11:58:51.254Z,1.73
2023-05-05T12:01:19.218Z,2.15
2023-05-05T12:03:47.496Z,2.25
2023-05-05T12:06:15.593Z,1.77
2023-05-05T12:08:43.550Z,2.10
2023-05-05T12:11:12.069Z,1.70
2023-05-05T12:13:40.183Z,2.03
2023-05-05T12:16:14.946Z,2.00
2023-05-05T12:18:43.296Z,1.95
2023-05-05T12:21:18.558Z,3.53
2023-05-05T12:23:46.701Z,1.62
2023-05-05T12:26:31.337Z,1.65
2023-05-05T12:29:00.174Z,1.40
2023-05-05T12:31:41.901Z,1.73
2023-05-05T12:34:11.008Z,1.62
2023-05-05T12:36:39.136Z,1.67
2023-05-05T12:39:07.091Z,1.60
2023-05-05T12:41:35.414Z,1.87
2023-05-05T12:44:04.421Z,1.77
2023-05-05T12:46:33.256Z,1.65
2023-05-05T12:49:02.825Z,1.50
2023-05-05T12:51:30.819Z,1.60
2023-05-05T12:54:09.550Z,1.40
2023-05-05T12:56:42.008Z,1.40
2023-05-05T12:59:11.017Z,1.40
2023-05-05T13:01:55.286Z,1.02
2023-05-05T13:04:25.263Z,1.30
2023-05-05T13:07:12.969Z,1.30
2023-05-05T13:09:41.080Z,1.40
2023-05-05T13:12:13.694Z,1.33
2023-05-05T13:14:42.149Z,1.12
2023-05-05T13:17:10.467Z,1.30
2023-05-05T13:19:43.282Z,1.25
2023-05-05T13:22:11.541Z,1.08
2023-05-05T13:24:50.493Z,1.20
2023-05-05T13:27:21.129Z,1.42
2023-05-05T13:29:49.393Z,1.42
2023-05-05T13:32:17.282Z,1.20
2023-05-05T13:34:45.651Z,1.10
2023-05-05T13:37:13.791Z,1.25
2023-05-05T13:39:41.879Z,1.20
2023-05-05T13:42:10.119Z,1.23
2023-05-05T13:44:38.200Z,1.15
2023-05-05T13:47:06.316Z,1.30
2023-05-05T13:49:34.452Z,1.20
2023-05-05T13:52:02.863Z,1.20
2023-05-05T13:54:30.896Z,1.30
2023-05-05T13:56:59.445Z,1.42
2023-05-05T13:59:27.439Z,1.33
2023-05-05T14:01:55.412Z,1.10
2023-05-05T14:04:23.476Z,1.35
2023-05-05T14:06:51.555Z,1.23
2023-05-05T14:09:19.432Z,1.40
2023-05-05T14:11:47.491Z,1.33
2023-05-05T14:14:15.574Z,1.35
2023-05-05T14:16:43.657Z,1.20
2023-05-05T14:19:11.673Z,1.50
2023-05-05T14:21:39.793Z,1.05
2023-05-05T14:24:08.101Z,1.20
2023-05-05T14:26:36.146Z,1.30
2023-05-05T14:29:04.129Z,1.30
2023-05-05T14:31:32.218Z,0.95
2023-05-05T14:34:00.184Z,1.12
2023-05-05T14:36:28.183Z,1.33
2023-05-05T14:38:56.218Z,1.42
2023-05-05T14:41:24.305Z,1.20
2023-05-05T14:43:52.461Z,1.52
2023-05-05T14:46:20.714Z,1.30
2023-05-05T14:48:49.712Z,1.40
2023-05-05T14:51:17.724Z,1.65
2023-05-05T14:53:45.851Z,1.60
2023-05-05T14:56:13.937Z,1.85
2023-05-05T14:58:41.905Z,1.55
2023-05-05T15:01:09.840Z,1.37
2023-05-05T15:03:38.012Z,1.70
2023-05-05T15:06:06.934Z,1.60
2023-05-05T15:08:35.007Z,1.30
2023-05-05T15:11:03.071Z,1.40
2023-05-05T15:13:31.467Z,1.52
2023-05-05T15:15:59.462Z,1.67
2023-05-05T15:18:27.532Z,1.52
2023-05-05T15:20:55.413Z,1.87
2023-05-05T15:23:23.391Z,1.77
2023-05-05T15:25:51.339Z,1.75
2023-05-05T15:28:20.094Z,1.67
2023-05-05T15:30:48.032Z,1.55
2023-05-05T15:33:16.281Z,1.75
2023-05-05T15:35:44.326Z,1.40
2023-05-05T15:38:12.320Z,1.40
2023-05-05T15:40:40.291Z,1.62
2023-05-05T15:43:08.246Z,1.52
2023-05-05T15:45:36.533Z,2.28
2023-05-05T15:48:04.688Z,1.48
2023-05-05T15:50:33.033Z,1.70
2023-05-05T15:53:01.807Z,1.73
2023-05-05T15:55:29.962Z,1.87
2023-05-05T15:57:58.095Z,1.52
2023-05-05T16:00:27.011Z,1.60
2023-05-05T16:02:55.081Z,1.95
2023-05-05T16:05:23.363Z,1.65
2023-05-05T16:07:51.128Z,1.60
2023-05-05T16:10:20.763Z,2.70
2023-05-05T16:12:48.825Z,3.62
2023-05-05T16:15:16.785Z,4.95
2023-05-05T16:17:44.757Z,2.67
2023-05-05T16:20:13.048Z,2.30
2023-05-05T16:22:41.017Z,2.28
2023-05-05T16:25:09.630Z,1.83
2023-05-05T16:27:37.818Z,1.85
2023-05-05T16:30:06.210Z,2.08
2023-05-05T16:32:34.215Z,2.10
2023-05-05T16:35:03.412Z,2.03
2023-05-05T16:37:31.476Z,1.80
2023-05-05T16:39:59.479Z,1.45
2023-05-05T16:42:27.741Z,1.48
2023-05-05T16:44:55.738Z,1.55
2023-05-05T16:47:23.836Z,1.50
2023-05-05T16:49:51.875Z,1.62
2023-05-05T16:52:20.046Z,1.37
2023-05-05T16:54:49.327Z,1.20
2023-05-05T16:57:17.264Z,1.42
2023-05-05T16:59:45.184Z,1.50
2023-05-05T17:02:13.104Z,1.50
2023-05-05T17:04:41.116Z,1.23
2023-05-05T17:07:09.193Z,1.67
2023-05-05T17:09:37.317Z,1.60
2023-05-05T17:12:05.720Z,1.62
2023-05-05T17:14:34.952Z,1.30
2023-05-05T17:17:02.901Z,1.33
2023-05-05T17:19:30.806Z,1.20
2023-05-05T17:21:58.962Z,1.60
2023-05-05T17:24:27.097Z,1.20
2023-05-05T17:26:55.488Z,1.10
2023-05-05T17:29:24.640Z,1.00
2023-05-05T17:31:52.974Z,1.40
2023-05-05T17:34:21.129Z,1.27
2023-05-05T17:36:49.185Z,1.10
2023-05-05T17:39:17.312Z,1.30
2023-05-05T17:41:45.326Z,1.30
2023-05-05T17:44:13.322Z,1.10
2023-05-05T17:46:41.828Z,1.10
2023-05-05T17:49:09.897Z,1.33
2023-05-05T17:51:37.918Z,1.30
2023-05-05T17:54:06.238Z,1.30
2023-05-05T17:56:36.145Z,2.65
2023-05-05T17:59:04.335Z,1.62
2023-05-05T18:01:32.330Z,1.20
2023-05-05T18:04:00.462Z,1.00
2023-05-05T18:06:29.455Z,1.20
2023-05-05T18:08:57.839Z,1.10
2023-05-05T18:11:29.075Z,1.25
2023-05-05T18:13:57.559Z,1.40
2023-05-05T18:16:25.742Z,1.60
2023-05-05T18:18:53.885Z,1.17
2023-05-05T18:21:21.902Z,1.50
2023-05-05T18:23:51.191Z,1.27
2023-05-05T18:26:19.266Z,1.25
2023-05-05T18:28:47.399Z,1.25
2023-05-05T18:31:15.522Z,1.58
2023-05-05T18:33:45.084Z,1.25
2023-05-05T18:36:14.101Z,1.25
2023-05-05T18:38:42.108Z,1.23
2023-05-05T18:41:10.093Z,1.37
2023-05-05T18:43:38.196Z,1.35
2023-05-05T18:46:06.250Z,1.23
2023-05-05T18:48:34.236Z,1.25
2023-05-05T18:51:05.914Z,1.15
2023-05-05T18:53:34.102Z,1.17
2023-05-05T18:56:02.772Z,1.58
2023-05-05T18:58:31.887Z,2.20
2023-05-05T19:00:59.940Z,1.90
2023-05-05T19:03:28.094Z,1.80
2023-05-05T19:05:56.081Z,1.55
2023-05-05T19:08:24.169Z,1.42
2023-05-05T19:10:52.762Z,1.20
2023-05-05T19:13:20.793Z,1.33
2023-05-05T19:15:48.827Z,1.30
2023-05-05T19:18:17.484Z,0.93
2023-05-05T19:20:45.428Z,1.40
2023-05-05T19:23:13.625Z,6.18
2023-05-05T19:25:41.610Z,2.30
2023-05-05T19:28:09.649Z,1.70
2023-05-05T19:30:38.058Z,1.40
2023-05-05T19:33:06.274Z,1.42
2023-05-05T19:35:34.331Z,1.30
2023-05-05T19:38:02.426Z,1.25
2023-05-05T19:40:30.354Z,1.30
2023-05-05T19:42:58.329Z,1.33
2023-05-05T19:45:26.354Z,1.40
2023-05-05T19:47:54.398Z,1.27
2023-05-05T19:50:22.723Z,1.42
2023-05-05T19:52:50.749Z,1.37
2023-05-05T19:55:19.858Z,1.40
2023-05-05T19:57:47.834Z,1.10
2023-05-05T20:00:16.016Z,1.27
2023-05-05T20:02:44.167Z,1.02
2023-05-05T20:05:15.147Z,1.37
2023-05-05T20:07:43.530Z,1.87
2023-05-05T20:10:12.196Z,1.10
2023-05-05T20:12:43.526Z,1.42
2023-05-05T20:15:12.724Z,2.72
2023-05-05T20:17:40.817Z,4.70
2023-05-05T20:20:09.465Z,3.72
2023-05-05T20:22:38.875Z,1.60
2023-05-05T20:25:08.840Z,4.22
2023-05-05T20:27:36.990Z,2.40
2023-05-05T20:30:05.778Z,1.70
2023-05-05T20:32:33.841Z,1.60
2023-05-05T20:35:01.968Z,1.83
2023-05-05T20:37:30.022Z,1.50
2023-05-05T20:39:59.524Z,1.98
2023-05-05T20:42:28.989Z,1.48
2023-05-05T20:44:57.030Z,1.50
2023-05-05T20:47:25.562Z,1.50
2023-05-05T20:49:53.605Z,1.60
2023-05-05T20:52:21.644Z,1.77
2023-05-05T20:54:49.589Z,1.60
2023-05-05T20:57:17.602Z,2.00
2023-05-05T20:59:45.545Z,1.40
2023-05-05T21:02:13.628Z,1.75
2023-05-05T21:04:41.920Z,1.65
2023-05-05T21:07:09.915Z,1.83
2023-05-05T21:09:37.987Z,1.80
2023-05-05T21:12:06.195Z,1.62
2023-05-05T21:14:34.205Z,1.65
2023-05-05T21:17:02.293Z,2.70
2023-05-05T21:19:30.409Z,2.55
2023-05-05T21:22:00.394Z,2.75
2023-05-05T21:24:29.383Z,2.00
2023-05-05T21:26:57.650Z,1.90
2023-05-05T21:29:26.091Z,2.17
2023-05-05T21:31:54.087Z,2.10
2023-05-05T21:34:22.086Z,1.65
2023-05-05T21:36:50.070Z,1.87
2023-05-05T21:39:18.613Z,2.17
2023-05-05T21:41:46.646Z,2.60
2023-05-05T21:44:14.869Z,1.92
2023-05-05T21:46:42.956Z,2.35
2023-05-05T21:49:17.286Z,1.92
2023-05-05T21:51:46.265Z,2.10
2023-05-05T21:54:14.362Z,2.17
2023-05-05T21:56:42.507Z,2.28
2023-05-05T21:59:10.518Z,2.58
2023-05-05T22:01:38.651Z,2.75
2023-05-05T22:04:06.789Z,2.67
2023-05-05T22:06:34.853Z,2.50
2023-05-05T22:09:02.827Z,2.03
2023-05-05T22:11:30.819Z,5.80
2023-05-05T22:13:58.862Z,2.17
2023-05-05T22:16:26.945Z,3.05
2023-05-05T22:18:55.003Z,2.35
2023-05-05T22:21:23.383Z,2.42
2023-05-05T22:23:51.446Z,2.25
2023-05-05T22:26:19.366Z,2.12
2023-05-05T22:28:47.520Z,2.37
2023-05-05T22:31:15.605Z,2.55
2023-05-05T22:33:43.571Z,2.30
2023-05-05T22:36:11.994Z,2.35
2023-05-05T22:38:39.924Z,2.03
2023-05-05T22:41:08.664Z,2.30
2023-05-05T22:43:36.614Z,2.70
2023-05-05T22:46:04.684Z,2.50
2023-05-05T22:48:32.727Z,2.78
2023-05-05T22:51:01.265Z,2.95
2023-05-05T22:53:29.310Z,2.90
2023-05-05T22:55:57.378Z,2.72
2023-05-05T22:58:25.962Z,2.37
2023-05-05T23:00:54.006Z,2.90
2023-05-05T23:03:22.051Z,3.12
2023-05-05T23:05:50.155Z,2.97
2023-05-05T23:08:18.130Z,3.00
2023-05-05T23:10:46.119Z,2.60
2023-05-05T23:13:14.222Z,2.80
2023-05-05T23:15:42.488Z,2.37
2023-05-05T23:18:10.498Z,2.37
2023-05-05T23:20:38.518Z,2.37
2023-05-05T23:23:06.624Z,2.55
2023-05-05T23:25:34.532Z,2.60
2023-05-05T23:28:02.494Z,2.30
2023-05-05T23:30:30.752Z,1.95
2023-05-05T23:32:59.306Z,2.33
2023-05-05T23:35:27.612Z,2.65
2023-05-05T23:37:55.619Z,2.47
2023-05-05T23:40:23.820Z,2.60
2023-05-05T23:42:51.813Z,2.75
2023-05-05T23:45:19.751Z,2.53
2023-05-05T23:47:47.885Z,2.78
2023-05-05T23:50:15.828Z,2.60
2023-05-05T23:52:43.871Z,2.62
2023-05-05T23:55:12.148Z,2.47
2023-05-05T23:57:40.171Z,3.15
